Time;durP1;ratioP1;P1;durP2;ratioP2;P2;SDS_P1;SDS_P2;PMS_P1;PMS_P2;Temp;Humidity;BMP_temperature;BMP_pressure;BME280_temperature;BME280_humidity;BME280_pressure;Samples;Min_cycle;Max_cycle;Signal;HPM_P1;HPM_P2
2021/03/25 00:01:17;;;;;;;2.67;2.47;;;;;;;-2.02;100.00;97697.03;4989744;28;20420;-80
2021/03/25 00:03:45;;;;;;;4.88;3.13;;;;;;;-2.03;100.00;97695.28;5013623;28;20474;-81
2021/03/25 00:06:11;;;;;;;2.33;2.15;;;;;;;-2.14;100.00;97696.28;5014039;28;20071;-81
2021/03/25 00:08:39;;;;;;;1.77;1.67;;;;;;;-2.17;100.00;97696.31;4996997;28;20192;-81
2021/03/25 00:11:05;;;;;;;7.82;4.93;;;;;;;-2.21;100.00;97706.84;4997156;28;20413;-81
2021/03/25 00:13:31;;;;;;;3.22;2.95;;;;;;;-2.28;100.00;97694.66;4997530;28;20109;-81
2021/03/25 00:15:57;;;;;;;1.75;1.65;;;;;;;-2.40;100.00;97702.63;5013815;28;20547;-81
2021/03/25 00:18:22;;;;;;;2.97;2.45;;;;;;;-2.54;100.00;97693.16;4997706;28;20094;-81
2021/03/25 00:20:49;;;;;;;2.38;2.20;;;;;;;-2.52;100.00;97710.59;4997439;28;20033;-81
2021/03/25 00:23:15;;;;;;;2.67;1.60;;;;;;;-2.61;100.00;97700.19;4997354;28;20111;-81
2021/03/25 00:25:41;;;;;;;29.35;4.78;;;;;;;-2.56;100.00;97698.44;4997302;28;20029;-79
2021/03/25 00:28:09;;;;;;;1.90;1.77;;;;;;;-2.58;100.00;97704.56;5013556;28;20033;-80
2021/03/25 00:30:35;;;;;;;0.82;0.82;;;;;;;-2.62;100.00;97695.88;4997405;28;20116;-80
2021/03/25 00:33:03;;;;;;;2.15;2.05;;;;;;;-2.50;100.00;97707.97;4997006;28;20038;-80
2021/03/25 00:35:30;;;;;;;1.75;1.65;;;;;;;-2.51;100.00;97698.38;4997193;28;20056;-80
2021/03/25 00:37:57;;;;;;;4.72;2.88;;;;;;;-2.46;100.00;97704.47;4996987;28;20037;-80
2021/03/25 00:40:22;;;;;;;3.15;2.85;;;;;;;-2.57;100.00;97694.06;4997451;28;20489;-79
2021/03/25 00:42:49;;;;;;;2.83;2.60;;;;;;;-2.61;100.00;97696.72;4997234;28;20068;-80
2021/03/25 00:45:37;;;;;;;2.58;2.30;;;;;;;-2.65;100.00;97692.41;4997314;28;20025;-80
2021/03/25 00:48:03;;;;;;;2.30;2.20;;;;;;;-2.70;100.00;97684.56;5012736;28;20398;-80
2021/03/25 00:50:31;;;;;;;5.60;3.65;;;;;;;-2.67;100.00;97694.13;5013471;28;20056;-81
2021/03/25 00:52:57;;;;;;;9.77;2.47;;;;;;;-2.77;100.00;97694.22;4996940;28;20035;-81
2021/03/25 00:55:24;;;;;;;2.40;1.92;;;;;;;-2.78;100.00;97686.38;4996818;28;20045;-82
2021/03/25 00:57:49;;;;;;;2.25;2.10;;;;;;;-2.79;100.00;97688.13;5013548;28;20580;-80
2021/03/25 01:00:20;;;;;;;3.80;2.78;;;;;;;-2.78;100.00;97687.25;4997071;28;20087;-81
2021/03/25 01:02:45;;;;;;;2.13;1.92;;;;;;;-2.75;100.00;97689.84;5013401;28;20041;-81
2021/03/25 01:05:12;;;;;;;1.30;1.30;;;;;;;-2.72;100.00;97677.63;5013240;28;20441;-81
2021/03/25 01:08:30;;;;;;;3.83;2.25;;;;;;;-2.76;100.00;97688.09;4997215;28;20036;-81
2021/03/25 01:11:10;;;;;;;2.58;2.42;;;;;;;-2.87;100.00;97692.56;5031291;28;20489;-81
2021/03/25 01:13:47;;;;;;;3.38;3.05;;;;;;;-3.02;100.00;97665.63;4997081;28;20025;-81
2021/03/25 01:16:35;;;;;;;1.83;1.73;;;;;;;-2.97;100.00;97677.81;4997067;28;20045;-81
2021/03/25 01:19:09;;;;;;;4.97;3.92;;;;;;;-2.94;100.00;97680.41;4996698;28;20133;-82
2021/03/25 01:21:34;;;;;;;5.55;3.53;;;;;;;-3.04;100.00;97673.47;4999233;28;20583;-80
2021/03/25 01:24:00;;;;;;;2.08;1.98;;;;;;;-3.10;100.00;97675.25;5000254;28;20116;-82
2021/03/25 01:26:26;;;;;;;2.55;2.35;;;;;;;-3.21;100.00;97671.88;5006267;28;20038;-81
2021/03/25 01:28:51;;;;;;;6.03;3.38;;;;;;;-3.22;100.00;97673.59;4996739;28;20630;-81
2021/03/25 01:31:17;;;;;;;4.53;3.88;;;;;;;-3.21;100.00;97675.34;5016748;28;20036;-81
2021/03/25 01:33:42;;;;;;;4.32;3.95;;;;;;;-3.22;100.00;97681.44;5000331;28;20038;-81
2021/03/25 01:36:08;;;;;;;1.40;1.30;;;;;;;-3.32;100.00;97677.13;4999925;28;20033;-81
2021/03/25 01:38:34;;;;;;;1.98;1.88;;;;;;;-3.25;100.00;97684.09;5000338;28;20044;-81
2021/03/25 01:41:01;;;;;;;2.22;2.13;;;;;;;-3.30;100.00;97686.75;5000001;28;20499;-80
2021/03/25 01:43:37;;;;;;;2.90;2.65;;;;;;;-3.41;100.00;97682.41;5000341;28;20029;-81
2021/03/25 01:46:25;;;;;;;3.05;2.72;;;;;;;-3.46;100.00;97687.69;5016623;28;20095;-81
2021/03/25 01:48:54;;;;;;;2.17;1.98;;;;;;;-3.47;100.00;97682.44;5016372;28;20021;-81
2021/03/25 01:51:32;;;;;;;7.03;4.15;;;;;;;-3.48;100.00;97691.19;4999613;28;20493;-81
2021/03/25 01:54:35;;;;;;;2.58;2.40;;;;;;;-3.52;100.00;97685.09;5033834;28;20420;-81
2021/03/25 01:57:29;;;;;;;2.28;2.08;;;;;;;-3.57;100.00;97691.25;5016016;28;20124;-81
2021/03/25 02:00:13;;;;;;;1.27;1.27;;;;;;;-3.57;100.00;97697.31;5015963;28;20029;-81
2021/03/25 02:03:03;;;;;;;4.75;3.20;;;;;;;-3.60;100.00;97691.25;5015932;28;20032;-81
2021/03/25 02:05:38;;;;;;;5.75;2.08;;;;;;;-3.71;100.00;97693.03;5033777;28;20030;-81
2021/03/25 02:08:06;;;;;;;1.25;1.25;;;;;;;-3.74;100.00;97688.69;5015936;28;20025;-81
2021/03/25 02:10:47;;;;;;;2.17;1.95;;;;;;;-3.81;100.00;97694.78;5015516;28;20102;-81
2021/03/25 02:13:32;;;;;;;2.00;1.90;;;;;;;-3.94;100.00;97691.34;5033581;28;20037;-81
2021/03/25 02:16:11;;;;;;;2.35;2.15;;;;;;;-3.91;100.00;97701.78;5015621;28;20034;-82
2021/03/25 02:18:41;;;;;;;4.35;2.90;;;;;;;-3.99;100.00;97694.84;5015856;28;20028;-81
2021/03/25 02:21:19;;;;;;;2.95;2.70;;;;;;;-4.11;100.00;97687.06;5015560;28;20028;-81
2021/03/25 02:24:03;;;;;;;2.05;1.95;;;;;;;-3.95;100.00;97715.75;5015742;28;20070;-81
2021/03/25 02:26:32;;;;;;;2.42;1.45;;;;;;;-4.04;100.00;97707.94;5033495;28;20032;-81
2021/03/25 02:29:21;;;;;;;3.05;1.98;;;;;;;-4.03;100.00;97712.28;5015658;28;20108;-81
2021/03/25 02:31:52;;;;;;;1.58;1.52;;;;;;;-4.07;100.00;97710.56;5015093;28;20482;-80
2021/03/25 02:34:22;;;;;;;18.73;2.95;;;;;;;-4.05;100.00;97708.81;4999320;28;20025;-81
2021/03/25 02:36:56;;;;;;;1.92;1.83;;;;;;;-3.97;100.00;97703.56;4999130;28;20129;-82
2021/03/25 02:39:36;;;;;;;6.43;2.60;;;;;;;-3.99;100.00;97698.34;5015361;28;20028;-81
2021/03/25 02:42:03;;;;;;;5.63;3.53;;;;;;;-3.85;100.00;97708.75;4998961;28;20018;-82
2021/03/25 02:44:35;;;;;;;4.78;2.53;;;;;;;-3.91;100.00;97709.63;5015377;28;20493;-81
2021/03/25 02:47:08;;;;;;;6.28;4.10;;;;;;;-3.96;100.00;97713.13;4998820;28;20063;-81
2021/03/25 02:49:45;;;;;;;2.17;2.05;;;;;;;-4.03;100.00;97712.28;4991459;28;20037;-81
2021/03/25 02:52:22;;;;;;;3.10;2.25;;;;;;;-4.06;100.00;97717.50;4998294;28;20505;-81
2021/03/25 02:54:48;;;;;;;3.10;2.90;;;;;;;-4.10;100.00;97710.56;4998899;28;20115;-81
2021/03/25 02:57:27;;;;;;;6.72;4.15;;;;;;;-4.08;100.00;97711.41;5014971;28;20460;-81
2021/03/25 02:59:58;;;;;;;2.00;1.88;;;;;;;-4.02;100.00;97714.03;5015316;28;20025;-81
2021/03/25 03:02:32;;;;;;;3.78;3.42;;;;;;;-4.00;100.00;97727.09;4998342;28;20511;-81
2021/03/25 03:05:16;;;;;;;5.40;2.97;;;;;;;-3.94;100.00;97735.75;4999070;28;20033;-80
2021/03/25 03:08:15;;;;;;;3.33;3.08;;;;;;;-4.09;100.00;97703.59;5001664;28;20467;-82
2021/03/25 03:10:52;;;;;;;4.70;3.50;;;;;;;-4.08;100.00;97708.81;4984514;28;20037;-81
2021/03/25 03:13:22;;;;;;;1.70;1.60;;;;;;;-4.02;100.00;97731.41;5032195;28;20033;-81
2021/03/25 03:16:00;;;;;;;3.00;2.33;;;;;;;-4.10;100.00;97741.91;4998292;28;20083;-80
2021/03/25 03:18:52;;;;;;;5.80;5.05;;;;;;;-4.09;100.00;97738.41;5014681;28;20477;-80
2021/03/25 03:21:24;;;;;;;6.43;3.55;;;;;;;-4.13;100.00;97747.13;5003722;28;20069;-80
2021/03/25 03:23:50;;;;;;;10.98;4.65;;;;;;;-4.20;100.00;97749.72;5014739;28;20037;-81
2021/03/25 03:26:22;;;;;;;4.30;3.92;;;;;;;-4.30;100.00;97740.16;4997922;28;20493;-79
2021/03/25 03:28:50;;;;;;;3.75;2.88;;;;;;;-4.19;100.00;97754.97;4998297;28;20036;-81
2021/03/25 03:31:24;;;;;;;4.75;4.35;;;;;;;-4.36;100.00;97738.44;4998167;28;20061;-80
2021/03/25 03:33:55;;;;;;;3.83;3.33;;;;;;;-4.37;100.00;97755.00;4998168;28;20029;-81
2021/03/25 03:36:22;;;;;;;1.97;1.73;;;;;;;-4.38;100.00;97764.56;4997857;28;20045;-82
2021/03/25 03:38:59;;;;;;;7.18;5.05;;;;;;;-4.49;100.00;97762.81;4998099;28;20091;-82
2021/03/25 03:41:27;;;;;;;2.80;2.63;;;;;;;-4.64;100.00;97754.97;5014166;28;20033;-81
2021/03/25 03:43:53;;;;;;;3.83;3.10;;;;;;;-4.64;100.00;97765.41;4998003;28;20033;-80
2021/03/25 03:46:23;;;;;;;12.48;5.68;;;;;;;-4.62;100.00;97771.50;4997808;28;20052;-81
2021/03/25 03:48:48;;;;;;;3.83;3.50;;;;;;;-4.63;100.00;97777.59;4994594;28;20216;-81
2021/03/25 03:51:22;;;;;;;6.05;4.90;;;;;;;-4.80;100.00;97774.97;5010908;28;20609;-81
2021/03/25 03:53:48;;;;;;;6.43;3.65;;;;;;;-4.82;100.00;97767.97;4998448;28;20044;-82
2021/03/25 03:56:57;;;;;;;2.92;2.72;;;;;;;-4.62;100.00;97792.38;4998119;28;20025;-81
2021/03/25 03:59:31;;;;;;;1.90;1.80;;;;;;;-4.54;100.00;97790.63;4951664;29;20467;-81
2021/03/25 04:02:02;;;;;;;3.17;2.97;;;;;;;-4.45;100.00;97786.28;4914823;29;20032;-81
2021/03/25 04:04:37;;;;;;;1.48;1.48;;;;;;;-4.35;100.00;97787.16;4994829;28;20041;-81
2021/03/25 04:07:06;;;;;;;2.15;2.05;;;;;;;-4.17;100.00;97802.81;4997898;28;20495;-80
2021/03/25 04:09:43;;;;;;;3.03;2.72;;;;;;;-4.20;100.00;97791.50;4997672;28;20037;-80
2021/03/25 04:12:12;;;;;;;5.20;4.43;;;;;;;-4.16;100.00;97795.88;4998543;28;20069;-81
2021/03/25 04:14:47;;;;;;;5.88;5.32;;;;;;;-3.99;100.00;97810.66;5013895;28;20037;-81
2021/03/25 04:17:18;;;;;;;3.08;2.88;;;;;;;-3.93;100.00;97797.56;4997544;28;20409;-80
2021/03/25 04:19:46;;;;;;;1.90;1.80;;;;;;;-3.78;100.00;97807.13;4997298;28;20093;-84
2021/03/25 04:22:19;;;;;;;1.75;1.65;;;;;;;-3.72;100.00;97796.66;4997233;28;20029;-81
2021/03/25 04:24:57;;;;;;;3.05;2.72;;;;;;;-3.67;100.00;97799.28;4997242;28;20022;-81
2021/03/25 04:27:28;;;;;;;9.90;3.20;;;;;;;-3.57;100.00;97808.84;5013522;28;20128;-81
2021/03/25 04:30:19;;;;;;;8.98;3.80;;;;;;;-3.71;100.00;97785.34;4997318;28;20489;-82
2021/03/25 04:32:46;;;;;;;3.60;3.30;;;;;;;-3.64;100.00;97794.03;5013695;28;20053;-81
2021/03/25 04:35:12;;;;;;;1.17;1.17;;;;;;;-3.63;100.00;97816.69;5013288;28;20029;-80
2021/03/25 04:37:38;;;;;;;4.65;3.15;;;;;;;-3.71;100.00;97821.06;5013319;28;20025;-81
2021/03/25 04:40:11;;;;;;;3.03;2.80;;;;;;;-3.60;100.00;97824.53;5013788;28;20551;-80
2021/03/25 04:42:43;;;;;;;5.65;4.20;;;;;;;-3.53;100.00;97828.84;4997202;28;20032;-81
2021/03/25 04:45:12;;;;;;;;;;;;;;;-3.42;100.00;97832.31;4997617;28;20025;-81
2021/03/25 04:47:43;;;;;;;6.03;5.03;;;;;;;-3.46;100.00;97838.44;5013430;28;20477;-80
2021/03/25 04:50:16;;;;;;;7.45;5.05;;;;;;;-3.45;100.00;97848.91;5013828;28;20033;-81
2021/03/25 04:52:42;;;;;;;2.50;2.40;;;;;;;-3.38;100.00;97844.50;4997164;28;20132;-81
2021/03/25 04:55:13;;;;;;;12.10;6.95;;;;;;;-3.36;100.00;97850.63;4997517;28;20272;-80
2021/03/25 04:57:42;;;;;;;7.10;3.92;;;;;;;-3.16;100.00;97845.28;5017263;28;20037;-81
2021/03/25 05:00:15;;;;;;;3.72;3.42;;;;;;;-3.09;100.00;97857.50;5001067;28;20468;-81
2021/03/25 05:02:42;;;;;;;5.82;3.35;;;;;;;-2.98;100.00;97855.69;5000830;28;20033;-81
2021/03/25 05:05:17;;;;;;;3.83;3.58;;;;;;;-2.87;100.00;97844.31;5000740;28;20128;-81
2021/03/25 05:07:46;;;;;;;9.75;5.88;;;;;;;-2.82;100.00;97841.66;5000454;28;20035;-81
2021/03/25 05:10:17;;;;;;;7.25;4.80;;;;;;;-2.61;100.00;97851.16;5001018;28;20029;-83
2021/03/25 05:12:43;;;;;;;5.28;4.70;;;;;;;-2.53;99.54;97852.88;5002294;28;20037;-85
2021/03/25 05:15:12;;;;;;;6.57;6.03;;;;;;;-2.38;97.51;97859.75;5003355;28;20040;-86
2021/03/25 05:17:44;;;;;;;5.00;4.55;;;;;;;-2.10;97.43;97871.78;5003782;28;20500;-86
2021/03/25 05:20:15;;;;;;;12.07;7.22;;;;;;;-2.25;97.42;97849.19;4997927;28;20030;-87
2021/03/25 05:23:05;;;;;;;6.82;5.47;;;;;;;-1.98;96.01;97871.69;5018063;28;20037;-87
2021/03/25 05:25:39;;;;;;;10.50;5.97;;;;;;;-1.98;95.75;97873.44;4993183;28;20052;-86
2021/03/25 05:28:22;;;;;;;8.73;6.40;;;;;;;-1.95;95.27;97873.41;5003182;28;20057;-87
2021/03/25 05:30:50;;;;;;;9.98;7.95;;;;;;;-2.00;95.36;97867.34;5019453;28;20037;-86
2021/03/25 05:33:19;;;;;;;13.55;11.25;;;;;;;-1.90;95.94;97877.75;5003144;28;20128;-86
2021/03/25 05:35:53;;;;;;;12.20;8.98;;;;;;;-1.73;95.26;97873.25;5019097;28;20505;-86
2021/03/25 05:38:20;;;;;;;10.80;7.82;;;;;;;-1.61;94.67;97882.75;5003246;28;20094;-86
2021/03/25 05:40:51;;;;;;;5.85;4.90;;;;;;;-1.49;92.91;97884.38;5005405;28;20044;-86
2021/03/25 05:43:28;;;;;;;5.80;4.10;;;;;;;-1.32;92.37;97890.31;5004199;28;20051;-86
2021/03/25 05:46:17;;;;;;;4.95;4.55;;;;;;;-1.25;91.47;97874.53;5020423;28;20021;-87
2021/03/25 05:49:20;;;;;;;5.28;4.88;;;;;;;-0.96;90.19;97884.72;5009858;28;20064;-87
2021/03/25 05:52:23;;;;;;;12.07;6.28;;;;;;;-1.04;89.80;97893.53;5018064;28;20125;-87
2021/03/25 05:55:03;;;;;;;4.32;3.05;;;;;;;-1.09;89.38;97898.84;5019373;28;20021;-88
2021/03/25 05:58:03;;;;;;;4.57;4.15;;;;;;;-1.05;88.81;97883.94;5001196;28;20516;-87
2021/03/25 06:01:00;;;;;;;6.90;4.20;;;;;;;-1.00;88.60;97898.75;5001370;28;20033;-84
2021/03/25 06:03:26;;;;;;;4.10;3.75;;;;;;;-1.10;87.43;97897.97;5018023;28;20033;-83
2021/03/25 06:05:55;;;;;;;6.00;5.03;;;;;;;-1.04;89.16;97890.91;5001659;28;20018;-84
2021/03/25 06:08:43;;;;;;;6.80;5.57;;;;;;;-0.96;89.00;97903.09;4999938;28;20029;-86
2021/03/25 06:11:26;;;;;;;20.15;5.38;;;;;;;-1.02;88.35;97911.03;4995039;28;20025;-86
2021/03/25 06:14:14;;;;;;;2.80;2.60;;;;;;;-0.82;87.31;97902.91;5017500;28;20121;-83
2021/03/25 06:16:51;;;;;;;6.28;4.30;;;;;;;-0.78;87.04;97908.13;5017805;28;20095;-84
2021/03/25 06:19:30;;;;;;;7.32;4.97;;;;;;;-0.60;86.29;97902.66;5001202;28;20041;-86
2021/03/25 06:22:19;;;;;;;5.03;4.55;;;;;;;0.38;81.68;97900.34;5001640;28;20067;-83
2021/03/25 06:25:22;;;;;;;4.70;4.35;;;;;;;1.71;74.83;97907.50;5001595;28;20040;-87
2021/03/25 06:28:07;;;;;;;4.78;4.38;;;;;;;3.18;66.75;97902.13;5016753;28;20477;-78
2021/03/25 06:30:36;;;;;;;4.97;4.05;;;;;;;3.78;63.72;97904.81;5008773;28;20068;-84
2021/03/25 06:33:09;;;;;;;5.32;4.32;;;;;;;4.55;59.88;97887.44;4999821;28;20061;-83
2021/03/25 06:36:06;;;;;;;5.03;3.92;;;;;;;6.25;54.60;97909.56;5009616;28;20029;-83
2021/03/25 06:39:12;;;;;;;11.63;6.05;;;;;;;6.94;50.76;97919.16;4980835;28;20052;-81
2021/03/25 06:42:00;;;;;;;6.70;5.25;;;;;;;8.40;46.88;97916.16;4903382;29;20042;-81
2021/03/25 06:44:52;;;;;;;8.90;6.35;;;;;;;8.70;44.83;97887.16;5020667;28;20045;-81
2021/03/25 06:48:03;;;;;;;5.95;5.35;;;;;;;7.71;46.43;97919.38;4988148;28;20183;-83
2021/03/25 06:50:56;;;;;;;10.80;6.97;;;;;;;8.08;45.75;97851.03;4995153;28;20121;-83
2021/03/25 06:53:33;;;;;;;9.68;7.90;;;;;;;8.70;45.37;97893.34;4992566;28;20519;-80
2021/03/25 06:56:03;;;;;;;13.25;8.93;;;;;;;8.83;45.01;97909.63;4996238;28;20566;-83
2021/03/25 06:58:37;;;;;;;16.58;8.98;;;;;;;9.40;43.18;97876.47;4993515;28;20593;-82
2021/03/25 07:01:06;;;;;;;12.35;6.93;;;;;;;10.02;41.92;97885.63;4995935;28;20044;-85
2021/03/25 07:03:38;;;;;;;16.90;10.15;;;;;;;11.46;39.02;97885.34;4996365;28;20030;-83
2021/03/25 07:06:11;;;;;;;18.40;9.10;;;;;;;11.88;37.86;97901.53;4997953;28;20026;-83
2021/03/25 07:08:42;;;;;;;6.32;5.03;;;;;;;12.59;36.81;97893.44;4997107;28;20272;-84
2021/03/25 07:11:18;;;;;;;5.10;4.47;;;;;;;12.86;35.49;97851.38;4996902;28;20034;-85
2021/03/25 07:14:09;;;;;;;;;;;;;;;;;;;;;
2021/03/25 07:16:43;;;;;;;14.60;5.47;;;;;;;13.02;35.00;97876.25;5008384;28;20021;-79
2021/03/25 07:19:21;;;;;;;;;;;;;;;;;;;;;
2021/03/25 07:21:51;;;;;;;11.93;6.40;;;;;;;11.59;38.24;97918.50;5029525;28;20048;-79
2021/03/25 07:24:26;;;;;;;14.75;4.85;;;;;;;12.72;36.58;97918.53;4995081;28;20037;-79
2021/03/25 07:27:12;;;;;;;4.05;3.38;;;;;;;13.85;34.67;97901.94;5011646;28;20029;-78
2021/03/25 07:29:41;;;;;;;8.18;5.60;;;;;;;14.99;32.45;97903.53;4991036;28;20045;-80
2021/03/25 07:32:15;;;;;;;16.20;6.70;;;;;;;14.36;33.23;97902.84;4993745;28;20045;-80
2021/03/25 07:34:59;;;;;;;7.57;4.45;;;;;;;13.51;34.98;97912.34;5011624;28;20464;-79
2021/03/25 07:37:47;;;;;;;4.50;3.28;;;;;;;13.90;35.93;97856.78;5013492;28;20413;-80
2021/03/25 07:40:22;;;;;;;8.15;4.47;;;;;;;14.70;33.47;97909.34;4994518;28;20588;-79
2021/03/25 07:42:47;;;;;;;9.23;4.63;;;;;;;13.03;36.66;97911.09;5011835;28;20040;-79
2021/03/25 07:45:36;;;;;;;21.83;6.07;;;;;;;13.91;36.14;97926.59;5011735;28;20029;-79
2021/03/25 07:48:21;;;;;;;8.25;5.70;;;;;;;14.91;33.25;97918.56;4979192;28;20083;-79
2021/03/25 07:50:48;;;;;;;9.57;5.43;;;;;;;15.33;33.31;97915.38;5011674;28;20022;-79
2021/03/25 07:53:24;;;;;;;11.63;5.30;;;;;;;15.93;32.53;97920.66;4995088;28;20029;-86
2021/03/25 07:55:50;;;;;;;9.43;5.43;;;;;;;15.37;33.49;97914.16;4996456;28;20036;-86
2021/03/25 07:58:38;;;;;;;7.68;4.30;;;;;;;14.54;34.89;97921.22;4995218;28;20041;-86
2021/03/25 08:01:16;;;;;;;10.05;6.18;;;;;;;14.34;35.09;97919.09;5011069;28;20037;-83
2021/03/25 08:04:00;;;;;;;10.95;4.18;;;;;;;14.01;36.13;97900.78;5003463;28;20116;-85
2021/03/25 08:06:32;;;;;;;7.03;3.92;;;;;;;14.06;36.62;97897.75;4995677;28;20121;-85
2021/03/25 08:09:09;;;;;;;4.65;3.65;;;;;;;13.91;36.01;97920.34;4995411;28;20449;-84
2021/03/25 08:11:51;;;;;;;13.52;5.00;;;;;;;13.23;37.05;97847.13;5012389;28;20082;-84
2021/03/25 08:15:09;;;;;;;10.25;5.75;;;;;;;13.46;36.75;97882.22;4996638;28;20131;-83
2021/03/25 08:18:26;;;;;;;;;;;;;;;;;;;;;
2021/03/25 08:24:48;;;;;;;9.75;5.13;;;;;;;15.53;33.80;97909.38;4950065;28;20041;-78
2021/03/25 08:27:20;;;;;;;14.40;5.95;;;;;;;15.39;35.79;97916.72;5010588;28;20117;-78
2021/03/25 08:30:15;;;;;;;13.05;6.70;;;;;;;15.96;33.64;97908.75;4994205;28;20036;-77
2021/03/25 08:33:14;;;;;;;10.57;5.95;;;;;;;15.23;33.67;97895.44;5032310;28;20040;-77
2021/03/25 08:35:45;;;;;;;9.75;4.97;;;;;;;15.65;33.13;97897.66;5014239;28;20029;-78
2021/03/25 08:38:29;;;;;;;13.02;6.35;;;;;;;16.50;31.98;97901.69;5014313;28;20029;-78
2021/03/25 08:41:25;;;;;;;7.88;4.72;;;;;;;16.15;29.43;97893.69;5032214;28;20508;-77
2021/03/25 08:44:10;;;;;;;6.00;3.22;;;;;;;15.81;28.15;97869.50;5008057;28;20508;-80
2021/03/25 08:46:44;;;;;;;6.93;2.63;;;;;;;14.92;29.54;97861.03;4991833;28;20034;-76
2021/03/25 08:49:39;;;;;;;6.78;2.13;;;;;;;13.36;31.25;97874.88;5010048;28;20072;-78
2021/03/25 08:52:12;;;;;;;1.00;1.00;;;;;;;14.36;28.59;97873.25;4998075;28;20481;-82
2021/03/25 08:54:56;;;;;;;1.33;1.17;;;;;;;15.23;28.19;97865.81;4998696;28;20037;-84
2021/03/25 08:57:33;;;;;;;4.25;1.67;;;;;;;15.90;27.01;97868.78;5000352;28;20041;-83
2021/03/25 09:00:22;;;;;;;3.00;2.10;;;;;;;16.56;27.02;97878.75;4998498;28;20029;-81
2021/03/25 09:03:04;;;;;;;;;;;;;;;;;;;;;
2021/03/25 09:05:36;;;;;;;4.80;1.73;;;;;;;14.93;28.10;97868.13;5016526;28;20513;-83
2021/03/25 09:08:09;;;;;;;3.83;2.40;;;;;;;14.82;29.26;97871.63;4998336;28;20108;-83
2021/03/25 09:10:55;;;;;;;3.17;1.92;;;;;;;14.80;29.78;97868.16;4998834;28;20117;-83
2021/03/25 09:13:29;;;;;;;3.58;1.92;;;;;;;14.75;27.81;97810.22;4998588;28;20036;-84
2021/03/25 09:15:57;;;;;;;11.60;2.35;;;;;;;15.55;29.29;97869.66;4996085;28;20029;-83
2021/03/25 09:18:26;;;;;;;1.98;1.65;;;;;;;14.84;28.68;97852.63;4997811;28;20037;-85
2021/03/25 09:20:59;;;;;;;8.80;6.10;;;;;;;13.69;35.06;97893.25;4997458;28;20508;-83
2021/03/25 09:23:31;;;;;;;8.57;5.18;;;;;;;13.67;37.07;97911.28;4998157;28;20065;-84
2021/03/25 09:26:01;;;;;;;4.82;4.18;;;;;;;13.69;37.29;97909.38;5014439;28;20167;-83
2021/03/25 09:29:06;;;;;;;6.60;3.72;;;;;;;14.19;35.07;97920.16;4998379;28;20033;-85
2021/03/25 09:31:39;;;;;;;16.92;6.70;;;;;;;15.01;37.27;97917.75;5011188;28;20083;-84
2021/03/25 09:34:11;;;;;;;7.07;4.97;;;;;;;15.33;35.98;97920.75;5014122;28;20030;-84
2021/03/25 09:36:38;;;;;;;11.97;5.90;;;;;;;15.12;33.70;97911.59;5013772;28;20144;-83
2021/03/25 09:39:03;;;;;;;10.40;5.25;;;;;;;15.43;30.56;97893.97;4997329;28;20284;-83
2021/03/25 09:41:29;;;;;;;7.13;3.83;;;;;;;15.86;31.83;97903.22;5031480;28;20045;-84
2021/03/25 09:44:11;;;;;;;11.45;5.88;;;;;;;16.76;30.53;97892.38;5013359;28;20103;-82
2021/03/25 09:46:50;;;;;;;;;;;;;;;16.85;30.21;97892.63;5008121;28;20467;-82
2021/03/25 09:49:23;;;;;;;3.70;2.25;;;;;;;17.45;24.96;97871.28;5013537;28;19920;-81
2021/03/25 09:52:12;;;;;;;12.05;5.05;;;;;;;17.59;28.02;97868.34;5014116;28;20068;-82
2021/03/25 09:54:43;;;;;;;3.97;3.15;;;;;;;18.05;25.24;97869.78;5026091;28;20095;-83
2021/03/25 09:57:34;;;;;;;1.38;1.30;;;;;;;17.93;23.46;97851.91;5013369;28;20033;-83
2021/03/25 10:00:12;;;;;;;6.38;2.63;;;;;;;16.60;25.48;97848.69;5013628;28;20112;-82
2021/03/25 10:02:37;;;;;;;2.70;1.20;;;;;;;15.82;25.97;97852.31;5013366;28;20061;-83
2021/03/25 10:05:30;;;;;;;1.38;1.27;;;;;;;15.04;26.26;97850.16;5012929;28;20509;-83
2021/03/25 10:08:20;;;;;;;13.65;2.88;;;;;;;14.79;27.34;97854.81;5013606;28;20036;-82
2021/03/25 10:10:58;;;;;;;6.45;3.33;;;;;;;15.17;27.60;97866.28;5013524;28;20539;-82
2021/03/25 10:13:44;;;;;;;5.18;2.72;;;;;;;14.13;28.65;97859.56;4992437;28;20068;-83
2021/03/25 10:16:31;;;;;;;2.53;1.00;;;;;;;14.59;29.59;97870.59;4998053;28;20026;-84
2021/03/25 10:19:00;;;;;;;2.10;1.83;;;;;;;15.49;26.80;97850.38;5015630;28;20113;-84
2021/03/25 10:21:44;;;;;;;6.00;2.85;;;;;;;16.30;25.40;97859.25;5010578;28;20021;-84
2021/03/25 10:24:24;;;;;;;3.17;1.90;;;;;;;15.99;25.71;97835.66;5013174;28;20452;-84
2021/03/25 10:27:03;;;;;;;2.67;1.23;;;;;;;15.33;25.58;97828.25;5015373;28;20029;-84
2021/03/25 10:29:35;;;;;;;5.50;1.52;;;;;;;15.34;26.59;97840.75;5018124;28;20021;-86
2021/03/25 10:32:03;;;;;;;2.58;1.58;;;;;;;15.26;27.23;97843.19;5015418;28;20099;-83
2021/03/25 10:34:40;;;;;;;3.08;1.33;;;;;;;14.75;27.79;97853.31;4998355;28;20069;-82
2021/03/25 10:37:35;;;;;;;3.78;1.90;;;;;;;15.36;26.16;97842.34;4998892;28;20026;-82
2021/03/25 10:40:25;;;;;;;3.45;1.67;;;;;;;13.93;29.33;97854.75;4998842;28;20060;-85
2021/03/25 10:43:05;;;;;;;1.45;1.35;;;;;;;14.36;28.09;97849.88;4993713;28;20045;-87
2021/03/25 10:45:46;;;;;;;0.40;0.40;;;;;;;14.52;26.24;97849.59;4999050;28;20029;-84
2021/03/25 10:48:19;;;;;;;6.60;2.22;;;;;;;14.57;26.77;97851.00;4999086;28;20029;-84
2021/03/25 10:51:17;;;;;;;3.35;1.75;;;;;;;14.92;28.26;97839.47;4998766;28;20436;-84
2021/03/25 10:53:52;;;;;;;1.58;1.23;;;;;;;14.43;28.07;97850.28;5009881;28;20041;-83
2021/03/25 10:56:27;;;;;;;2.60;1.65;;;;;;;14.69;26.20;97849.25;4998415;28;20493;-84
2021/03/25 10:59:11;;;;;;;2.03;1.33;;;;;;;14.16;30.09;97855.78;4998597;28;20118;-83
2021/03/25 11:01:55;;;;;;;2.95;1.35;;;;;;;14.73;30.07;97866.91;5014558;28;20038;-83
2021/03/25 11:04:29;;;;;;;3.42;2.50;;;;;;;15.41;27.37;97847.41;4997978;28;20034;-82
2021/03/25 11:06:55;;;;;;;0.93;0.88;;;;;;;15.97;27.54;97857.34;4998340;28;20017;-84
2021/03/25 11:09:27;;;;;;;0.47;0.47;;;;;;;15.34;27.11;97838.06;4998170;28;20183;-84
2021/03/25 11:12:02;;;;;;;0.60;0.60;;;;;;;15.49;26.94;97837.78;4998570;28;20021;-84
2021/03/25 11:14:47;;;;;;;1.13;0.98;;;;;;;15.43;27.54;97822.03;5014378;28;20029;-83
2021/03/25 11:17:21;;;;;;;1.67;0.82;;;;;;;15.85;25.27;97839.44;4999216;28;20029;-84
2021/03/25 11:19:51;;;;;;;1.92;1.15;;;;;;;15.31;28.13;97841.84;4998061;28;20040;-84
2021/03/25 11:22:17;;;;;;;0.98;0.43;;;;;;;15.62;26.23;97832.28;5014164;28;20478;-84
2021/03/25 11:24:42;;;;;;;6.93;0.90;;;;;;;15.33;26.56;97833.63;4997662;28;20056;-82
2021/03/25 11:27:14;;;;;;;0.40;0.40;;;;;;;15.92;24.49;97831.72;4997800;28;20021;-84
2021/03/25 11:29:42;;;;;;;0.75;0.57;;;;;;;16.50;25.25;97844.13;4997697;28;20064;-83
2021/03/25 11:32:08;;;;;;;1.40;1.30;;;;;;;16.60;23.87;97818.97;4998795;28;20537;-84
2021/03/25 11:34:34;;;;;;;0.82;0.60;;;;;;;15.96;24.16;97819.72;5013937;28;20029;-84
2021/03/25 11:37:02;;;;;;;0.60;0.60;;;;;;;15.86;24.28;97826.81;4997554;28;20040;-84
2021/03/25 11:39:30;;;;;;;0.38;0.38;;;;;;;15.28;24.59;97817.81;4997865;28;20552;-85
2021/03/25 11:42:00;;;;;;;0.75;0.43;;;;;;;14.47;29.63;97817.66;4997902;28;20048;-84
2021/03/25 11:44:43;;;;;;;3.38;1.40;;;;;;;16.85;26.83;97828.63;4989558;28;20025;-85
2021/03/25 11:47:20;;;;;;;;;;;;;;;16.68;24.69;97827.31;4997897;28;20091;-86
2021/03/25 11:49:46;;;;;;;2.95;1.50;;;;;;;14.83;25.11;97802.41;5031595;28;19913;-86
2021/03/25 11:52:13;;;;;;;1.15;0.98;;;;;;;15.24;26.88;97816.34;4997371;28;20049;-84
2021/03/25 11:54:41;;;;;;;0.50;0.50;;;;;;;16.58;25.90;97820.94;4997298;28;20029;-84
2021/03/25 11:57:09;;;;;;;0.47;0.47;;;;;;;16.22;25.87;97805.00;4997502;28;20033;-84
2021/03/25 11:59:38;;;;;;;5.03;0.75;;;;;;;16.63;23.27;97799.81;5013424;28;20033;-84
2021/03/25 12:02:21;;;;;;;0.03;0.03;;;;;;;15.52;24.84;97807.88;4997336;28;20026;-84
2021/03/25 12:04:51;;;;;;;0.43;0.22;;;;;;;15.15;26.76;97799.03;5031422;28;20272;-83
2021/03/25 12:07:19;;;;;;;0.22;0.22;;;;;;;14.90;28.36;97814.47;4997219;28;20037;-83
2021/03/25 12:10:05;;;;;;;3.97;0.98;;;;;;;14.11;26.89;97814.91;4989562;28;20087;-84
2021/03/25 12:12:31;;;;;;;1.02;0.60;;;;;;;14.41;27.30;97817.25;4996822;28;20025;-83
2021/03/25 12:14:57;;;;;;;2.30;1.17;;;;;;;14.12;28.02;97819.31;5013531;28;20025;-82
2021/03/25 12:17:23;;;;;;;0.60;0.60;;;;;;;13.80;28.96;97818.06;4996959;28;20033;-84
2021/03/25 12:19:49;;;;;;;5.93;1.05;;;;;;;13.43;30.68;97815.25;4996992;28;20045;-83